createdAt,value
2019-03-04T00:01:37.066Z,60.00
2019-03-04T00:04:41.466Z,63.00
2019-03-04T00:07:45.852Z,66.00
2019-03-04T00:10:50.258Z,67.00
2019-03-04T00:13:54.643Z,65.00
2019-03-04T00:16:59.049Z,66.00
2019-03-04T00:20:03.467Z,70.00
2019-03-04T00:23:07.845Z,63.00
2019-03-04T00:26:12.256Z,65.00
2019-03-04T00:29:05.571Z,65.00
2019-03-04T00:32:09.976Z,63.00
2019-03-04T00:35:14.383Z,64.00
2019-03-04T00:38:18.768Z,60.00
2019-03-04T00:41:23.172Z,63.00
2019-03-04T00:44:27.558Z,61.00
2019-03-04T00:47:31.959Z,66.00
2019-03-04T00:50:36.368Z,62.00
2019-03-04T00:53:40.751Z,62.00
2019-03-04T00:56:45.157Z,65.00
2019-03-04T00:59:38.472Z,67.00
2019-03-04T01:02:42.882Z,65.00
2019-03-04T01:05:47.292Z,65.00
2019-03-04T01:08:51.702Z,63.00
2019-03-04T01:11:56.104Z,63.00
2019-03-04T01:15:00.523Z,65.00
2019-03-04T01:18:04.892Z,65.00
2019-03-04T01:21:09.284Z,62.00
2019-03-04T01:24:13.691Z,63.00
2019-03-04T01:27:18.092Z,61.00
2019-03-04T01:30:22.472Z,62.00
2019-03-04T01:33:26.879Z,63.00
2019-03-04T01:36:31.261Z,66.00
2019-03-04T01:39:24.594Z,65.00
2019-03-04T01:42:28.995Z,62.00
2019-03-04T01:45:33.379Z,64.00
2019-03-04T01:48:37.785Z,64.00
2019-03-04T01:51:42.178Z,64.00
2019-03-04T01:54:46.587Z,65.00
2019-03-04T01:57:50.991Z,64.00
2019-03-04T02:00:55.375Z,62.00
2019-03-04T02:03:59.779Z,67.00
2019-03-04T02:07:04.162Z,69.00
2019-03-04T02:10:08.574Z,66.00
2019-03-04T02:13:12.979Z,64.00
2019-03-04T02:16:17.362Z,62.00
2019-03-04T02:19:10.699Z,66.00
2019-03-04T02:22:15.081Z,62.00
2019-03-04T02:25:19.498Z,65.00
2019-03-04T02:28:23.905Z,66.00
2019-03-04T02:31:28.291Z,66.00
2019-03-04T02:34:32.701Z,70.00
2019-03-04T02:37:37.085Z,60.00
2019-03-04T02:40:41.498Z,63.00
2019-03-04T02:43:45.915Z,64.00
2019-03-04T02:46:50.290Z,65.00
2019-03-04T02:49:43.627Z,93.00
2019-03-04T02:52:48.016Z,66.00
2019-03-04T02:55:52.422Z,65.00
2019-03-04T02:58:56.826Z,63.00
2019-03-04T03:02:01.234Z,66.00
2019-03-04T03:05:05.644Z,62.00
2019-03-04T03:08:10.033Z,66.00
2019-03-04T03:11:14.449Z,67.00
2019-03-04T03:14:18.833Z,64.00
2019-03-04T03:17:23.245Z,68.00
2019-03-04T03:20:27.653Z,70.00
2019-03-04T03:23:32.042Z,71.00
2019-03-04T03:26:36.450Z,76.00
2019-03-04T03:29:29.761Z,65.00
2019-03-04T03:32:34.176Z,68.00
2019-03-04T03:35:38.589Z,68.00
2019-03-04T03:38:43.476Z,78.00
2019-03-04T03:41:47.887Z,66.00
2019-03-04T03:44:52.280Z,91.00
2019-03-04T03:47:56.683Z,69.00
2019-03-04T03:51:01.086Z,75.00
2019-03-04T03:54:05.471Z,70.00
2019-03-04T03:57:09.884Z,68.00
2019-03-04T04:00:14.276Z,66.00
2019-03-04T04:03:18.676Z,70.00
2019-03-04T04:06:23.081Z,68.00
2019-03-04T04:09:16.398Z,67.00
2019-03-04T04:12:20.801Z,66.00
2019-03-04T04:15:25.193Z,66.00
2019-03-04T04:18:29.593Z,71.00
2019-03-04T04:21:34.003Z,66.00
2019-03-04T04:24:38.387Z,62.00
2019-03-04T04:27:42.792Z,64.00
2019-03-04T04:30:47.177Z,60.00
2019-03-04T04:33:51.584Z,64.00
2019-03-04T04:36:55.987Z,65.00
2019-03-04T04:39:49.299Z,65.00
2019-03-04T04:42:53.708Z,67.00
2019-03-04T04:45:58.095Z,66.00
2019-03-04T04:49:02.505Z,68.00
2019-03-04T04:52:06.925Z,69.00
2019-03-04T04:55:11.313Z,69.00
2019-03-04T04:58:15.727Z,75.00
2019-03-04T05:01:20.112Z,68.00
2019-03-04T05:04:24.569Z,65.00
2019-03-04T05:07:28.957Z,68.00
2019-03-04T05:10:33.368Z,67.00
2019-03-04T05:13:37.775Z,66.00
2019-03-04T05:16:42.159Z,67.00
2019-03-04T05:19:35.496Z,67.00
2019-03-04T05:22:39.884Z,74.00
2019-03-04T05:25:44.291Z,65.00
2019-03-04T05:28:48.690Z,65.00
2019-03-04T05:31:53.076Z,63.00
2019-03-04T05:34:57.482Z,66.00
2019-03-04T05:38:01.873Z,65.00
2019-03-04T05:41:06.275Z,64.00
2019-03-04T05:44:10.691Z,66.00
2019-03-04T05:47:15.075Z,65.00
2019-03-04T05:50:19.492Z,66.00
2019-03-04T05:53:23.870Z,62.00
2019-03-04T05:56:28.279Z,65.00
2019-03-04T05:59:21.622Z,66.00
2019-03-04T06:02:26.007Z,66.00
2019-03-04T06:05:30.418Z,66.00
2019-03-04T06:08:34.807Z,65.00
2019-03-04T06:11:39.221Z,70.00
2019-03-04T06:14:43.605Z,70.00
2019-03-04T06:17:48.018Z,96.00
2019-03-04T06:20:52.428Z,67.00
2019-03-04T06:23:56.815Z,73.00
2019-03-04T06:27:01.227Z,70.00
2019-03-04T06:30:05.615Z,67.00
2019-03-04T06:33:10.032Z,66.00
2019-03-04T06:36:14.479Z,69.00
2019-03-04T06:39:07.810Z,69.00
2019-03-04T06:42:12.220Z,66.00
2019-03-04T06:45:16.608Z,67.00
2019-03-04T06:48:21.019Z,67.00
2019-03-04T06:51:25.439Z,85.00
2019-03-04T06:54:29.826Z,65.00
2019-03-04T06:57:34.239Z,66.00
2019-03-04T07:00:38.627Z,63.00
2019-03-04T07:03:43.039Z,76.00
2019-03-04T07:06:47.453Z,68.00
2019-03-04T07:09:40.774Z,66.00
2019-03-04T07:12:45.192Z,67.00
2019-03-04T07:15:49.578Z,65.00
2019-03-04T07:18:53.989Z,68.00
2019-03-04T07:21:58.377Z,68.00
2019-03-04T07:25:02.792Z,78.00
2019-03-04T07:28:07.200Z,63.00
2019-03-04T07:31:11.597Z,68.00
2019-03-04T07:34:16.010Z,80.00
2019-03-04T07:37:20.408Z,99.00
2019-03-04T07:40:24.809Z,68.00
2019-03-04T07:43:29.230Z,74.00
2019-03-04T07:46:33.625Z,77.00
2019-03-04T07:49:26.966Z,64.00
2019-03-04T07:52:31.357Z,67.00
2019-03-04T07:55:35.770Z,67.00
2019-03-04T07:58:40.188Z,92.00
2019-03-04T08:01:44.604Z,67.00
2019-03-04T08:04:49.018Z,74.00
2019-03-04T08:07:53.420Z,68.00
2019-03-04T08:10:57.826Z,66.00
2019-03-04T08:14:02.227Z,67.00
2019-03-04T08:17:06.644Z,68.00
2019-03-04T08:20:11.057Z,67.00
2019-03-04T08:23:15.449Z,91.00
2019-03-04T08:26:19.860Z,66.00
2019-03-04T08:29:13.177Z,71.00
2019-03-04T08:32:17.591Z,76.00
2019-03-04T08:35:22.006Z,65.00
2019-03-04T08:38:26.400Z,66.00
2019-03-04T08:41:30.813Z,68.00
2019-03-04T08:44:35.211Z,70.00
2019-03-04T08:47:39.627Z,102.00
2019-03-04T08:50:44.051Z,97.00
2019-03-04T08:53:48.451Z,110.00
2019-03-04T08:56:52.867Z,122.00
2019-03-04T08:59:46.186Z,124.00
2019-03-04T09:02:50.604Z,68.00
2019-03-04T09:05:56.010Z,95.00
2019-03-04T09:09:00.440Z,70.00
2019-03-04T09:12:04.863Z,98.00
2019-03-04T09:15:09.267Z,91.00
2019-03-04T09:18:13.689Z,78.00
2019-03-04T09:21:18.082Z,120.00
2019-03-04T09:24:22.493Z,116.00
2019-03-04T09:27:26.919Z,136.00
2019-03-04T09:30:31.341Z,106.00
2019-03-04T09:33:35.757Z,99.00
2019-03-04T09:36:40.153Z,106.00
2019-03-04T09:39:33.496Z,92.00
2019-03-04T09:42:38.985Z,124.00
2019-03-04T09:45:43.311Z,134.00
2019-03-04T09:48:47.721Z,73.00
2019-03-04T09:51:52.112Z,93.00
2019-03-04T09:54:56.531Z,90.00
2019-03-04T09:58:00.943Z,95.00
2019-03-04T10:01:05.331Z,68.00
2019-03-04T10:04:09.736Z,65.00
2019-03-04T10:07:14.132Z,102.00
2019-03-04T10:10:18.539Z,95.00
2019-03-04T10:13:22.954Z,76.00
2019-03-04T10:16:27.348Z,110.00
2019-03-04T10:19:20.689Z,76.00
2019-03-04T10:22:25.090Z,102.00
2019-03-04T10:25:29.505Z,69.00
2019-03-04T10:28:33.926Z,75.00
2019-03-04T10:31:38.328Z,98.00
2019-03-04T10:34:42.791Z,68.00
2019-03-04T10:37:47.146Z,95.00
2019-03-04T10:40:51.577Z,67.00
2019-03-04T10:43:56.004Z,95.00
2019-03-04T10:47:00.429Z,76.00
2019-03-04T10:50:04.868Z,69.00
2019-03-04T10:53:09.309Z,69.00
2019-03-04T10:56:13.748Z,79.00
2019-03-04T10:59:07.120Z,92.00
2019-03-04T11:02:11.568Z,65.00
2019-03-04T11:05:15.991Z,106.00
2019-03-04T11:08:20.424Z,76.00
2019-03-04T11:11:29.739Z,74.00
2019-03-04T11:14:29.265Z,71.00
2019-03-04T11:17:33.707Z,97.00
2019-03-04T11:20:38.115Z,78.00
2019-03-04T11:23:42.556Z,68.00
2019-03-04T11:26:47.021Z,94.00
2019-03-04T11:29:40.363Z,67.00
2019-03-04T11:32:44.801Z,71.00
2019-03-04T11:35:49.209Z,67.00
2019-03-04T11:38:53.634Z,100.00
2019-03-04T11:41:58.068Z,99.00
2019-03-04T11:45:02.477Z,64.00
2019-03-04T11:48:06.883Z,65.00
2019-03-04T11:51:11.278Z,67.00
2019-03-04T11:54:15.694Z,92.00
2019-03-04T11:57:20.117Z,93.00
2019-03-04T12:00:24.514Z,77.00
2019-03-04T12:03:28.932Z,92.00
2019-03-04T12:06:33.338Z,71.00
2019-03-04T12:09:26.678Z,74.00
2019-03-04T12:12:31.099Z,76.00
2019-03-04T12:15:35.502Z,106.00
2019-03-04T12:18:39.918Z,93.00
2019-03-04T12:21:44.312Z,69.00
2019-03-04T12:24:48.711Z,71.00
2019-03-04T12:27:53.125Z,69.00
2019-03-04T12:30:57.525Z,73.00
2019-03-04T12:34:01.942Z,80.00
2019-03-04T12:37:06.336Z,65.00
2019-03-04T12:40:10.748Z,98.00
2019-03-04T12:43:15.164Z,94.00
2019-03-04T12:46:19.567Z,134.00
2019-03-04T12:49:12.912Z,158.00
2019-03-04T12:52:17.317Z,100.00
2019-03-04T12:55:21.754Z,104.00
2019-03-04T12:58:26.180Z,114.00
2019-03-04T13:01:30.595Z,136.00
2019-03-04T13:04:35.029Z,106.00
2019-03-04T13:07:39.436Z,142.00
2019-03-04T13:10:43.874Z,80.00
2019-03-04T13:13:48.310Z,118.00
2019-03-04T13:16:52.722Z,97.00
2019-03-04T13:19:46.095Z,95.00
2019-03-04T13:22:50.502Z,91.00
2019-03-04T13:25:54.942Z,93.00
2019-03-04T13:28:59.378Z,85.00
2019-03-04T13:32:03.792Z,73.00
2019-03-04T13:35:08.225Z,80.00
2019-03-04T13:38:12.627Z,95.00
2019-03-04T13:41:17.051Z,95.00
2019-03-04T13:44:21.473Z,132.00
2019-03-04T13:47:25.868Z,97.00
2019-03-04T13:50:30.289Z,136.00
2019-03-04T13:53:34.689Z,102.00
2019-03-04T13:56:39.125Z,96.00
2019-03-04T13:59:32.466Z,130.00
2019-03-04T14:02:37.876Z,106.00
2019-03-04T14:05:42.785Z,76.00
2019-03-04T14:08:47.179Z,69.00
2019-03-04T14:11:51.595Z,93.00
2019-03-04T14:14:56.007Z,67.00
2019-03-04T14:18:00.404Z,72.00
2019-03-04T14:21:04.811Z,65.00
2019-03-04T14:24:09.214Z,67.00
2019-03-04T14:27:13.605Z,91.00
2019-03-04T14:30:18.017Z,90.00
2019-03-04T14:33:22.408Z,68.00
2019-03-04T14:36:26.810Z,90.00
2019-03-04T14:39:20.146Z,93.00
2019-03-04T14:42:24.564Z,75.00
2019-03-04T14:45:28.990Z,75.00
2019-03-04T14:48:33.386Z,75.00
2019-03-04T14:51:37.801Z,77.00
2019-03-04T14:54:42.194Z,85.00
2019-03-04T14:57:46.608Z,76.00
2019-03-04T15:00:51.023Z,95.00
2019-03-04T15:03:55.411Z,75.00
2019-03-04T15:06:59.825Z,90.00
2019-03-04T15:10:04.221Z,120.00
2019-03-04T15:13:09.944Z,85.00
2019-03-04T15:16:13.047Z,69.00
2019-03-04T15:19:06.356Z,92.00
2019-03-04T15:22:10.776Z,64.00
2019-03-04T15:25:15.176Z,67.00
2019-03-04T15:28:19.593Z,63.00
2019-03-04T15:31:26.190Z,63.00
2019-03-04T15:34:28.379Z,63.00
2019-03-04T15:37:33.680Z,61.00
2019-03-04T15:40:37.170Z,65.00
2019-03-04T15:43:41.575Z,69.00
2019-03-04T15:46:45.979Z,66.00
2019-03-04T15:49:39.286Z,66.00
2019-03-04T15:52:45.252Z,62.00
2019-03-04T15:55:48.082Z,67.00
2019-03-04T15:58:52.498Z,65.00
2019-03-04T16:01:56.906Z,60.00
2019-03-04T16:05:01.289Z,61.00
2019-03-04T16:08:07.917Z,66.00
2019-03-04T16:11:10.074Z,60.00
2019-03-04T16:14:14.477Z,61.00
2019-03-04T16:17:18.889Z,61.00
2019-03-04T16:20:23.271Z,64.00
2019-03-04T16:23:27.676Z,61.00
2019-03-04T16:26:32.054Z,64.00
2019-03-04T16:29:25.394Z,64.00
2019-03-04T16:32:29.798Z,61.00
2019-03-04T16:35:34.187Z,63.00
2019-03-04T16:38:38.592Z,63.00
2019-03-04T16:41:42.998Z,61.00
2019-03-04T16:44:47.410Z,64.00
2019-03-04T16:47:51.818Z,60.00
2019-03-04T16:50:56.197Z,62.00
2019-03-04T16:54:00.603Z,63.00
2019-03-04T16:57:04.993Z,60.00
2019-03-04T17:00:09.393Z,61.00
2019-03-04T17:03:13.793Z,65.00
2019-03-04T17:06:18.188Z,61.00
2019-03-04T17:09:11.527Z,60.00
2019-03-04T17:12:15.916Z,62.00
2019-03-04T17:15:20.333Z,62.00
2019-03-04T17:18:24.738Z,62.00
2019-03-04T17:21:29.144Z,62.00
2019-03-04T17:24:33.580Z,61.00
2019-03-04T17:27:37.978Z,63.00
2019-03-04T17:30:42.392Z,62.00
2019-03-04T17:33:46.808Z,66.00
2019-03-04T17:36:51.213Z,64.00
2019-03-04T17:39:44.547Z,68.00
2019-03-04T17:42:48.937Z,64.00
2019-03-04T17:45:53.353Z,66.00
2019-03-04T17:48:57.766Z,68.00
2019-03-04T17:52:02.151Z,61.00
2019-03-04T17:55:06.566Z,63.00
2019-03-04T17:58:10.961Z,63.00
2019-03-04T18:01:15.370Z,61.00
2019-03-04T18:04:19.783Z,64.00
2019-03-04T18:07:24.189Z,67.00
2019-03-04T18:10:28.597Z,63.00
2019-03-04T18:13:32.982Z,65.00
2019-03-04T18:16:37.393Z,62.00
2019-03-04T18:19:30.904Z,62.00
2019-03-04T18:22:35.242Z,67.00
2019-03-04T18:25:39.684Z,64.00
2019-03-04T18:28:44.096Z,60.00
2019-03-04T18:31:48.506Z,63.00
2019-03-04T18:34:52.912Z,61.00
2019-03-04T18:37:57.327Z,60.00
2019-03-04T18:41:01.734Z,63.00
2019-03-04T18:44:06.105Z,62.00
2019-03-04T18:47:10.605Z,67.00
2019-03-04T18:50:14.996Z,62.00
2019-03-04T18:53:08.503Z,64.00
2019-03-04T18:56:21.712Z,61.00
2019-03-04T18:59:06.331Z,61.00
2019-03-04T19:02:10.817Z,62.00
2019-03-04T19:05:15.243Z,61.00
2019-03-04T19:08:19.603Z,61.00
2019-03-04T19:11:24.006Z,61.00
2019-03-04T19:14:28.394Z,67.00
2019-03-04T19:17:33.811Z,64.00
2019-03-04T19:20:37.202Z,60.00
2019-03-04T19:23:41.588Z,63.00
2019-03-04T19:26:47.022Z,62.00
2019-03-04T19:29:40.327Z,64.00
2019-03-04T19:32:44.740Z,67.00
2019-03-04T19:35:50.156Z,62.00
2019-03-04T19:38:54.566Z,61.00
2019-03-04T19:41:58.967Z,91.00
2019-03-04T19:45:03.366Z,80.00
2019-03-04T19:48:07.768Z,80.00
2019-03-04T19:51:13.767Z,66.00
2019-03-04T19:54:16.568Z,66.00
2019-03-04T19:57:20.970Z,72.00
2019-03-04T20:00:25.356Z,75.00
2019-03-04T20:03:29.763Z,67.00
2019-03-04T20:06:34.175Z,73.00
2019-03-04T20:09:27.485Z,78.00
2019-03-04T20:12:31.899Z,66.00
2019-03-04T20:15:36.284Z,71.00
2019-03-04T20:18:40.742Z,65.00
2019-03-04T20:21:45.147Z,69.00
2019-03-04T20:24:49.534Z,63.00
2019-03-04T20:27:53.938Z,67.00
2019-03-04T20:30:58.331Z,76.00
2019-03-04T20:34:02.750Z,67.00
2019-03-04T20:37:07.176Z,67.00
2019-03-04T20:40:11.565Z,68.00
2019-03-04T20:43:15.979Z,64.00
2019-03-04T20:46:20.368Z,63.00
2019-03-04T20:49:13.703Z,75.00
2019-03-04T20:52:18.116Z,64.00
2019-03-04T20:55:22.523Z,73.00
2019-03-04T20:58:26.936Z,65.00
2019-03-04T21:01:31.327Z,70.00
2019-03-04T21:04:35.745Z,64.00
2019-03-04T21:07:40.152Z,68.00
2019-03-04T21:10:44.539Z,69.00
2019-03-04T21:13:48.945Z,66.00
2019-03-04T21:16:53.335Z,67.00
2019-03-04T21:19:46.669Z,70.00
2019-03-04T21:22:51.056Z,68.00
2019-03-04T21:25:55.470Z,75.00
2019-03-04T21:28:59.872Z,61.00
2019-03-04T21:32:04.254Z,65.00
2019-03-04T21:35:08.662Z,69.00
2019-03-04T21:38:13.066Z,72.00
2019-03-04T21:41:17.455Z,64.00
2019-03-04T21:44:22.529Z,63.00
2019-03-04T21:47:26.254Z,69.00
2019-03-04T21:50:30.659Z,71.00
2019-03-04T21:53:35.064Z,62.00
2019-03-04T21:56:39.462Z,98.00
2019-03-04T21:59:32.807Z,65.00
2019-03-04T22:02:37.185Z,65.00
2019-03-04T22:05:49.739Z,66.00
2019-03-04T22:08:46.008Z,66.00
2019-03-04T22:11:50.393Z,66.00
2019-03-04T22:14:54.810Z,63.00
2019-03-04T22:17:59.205Z,64.00
2019-03-04T22:21:03.587Z,61.00
2019-03-04T22:24:07.996Z,61.00
2019-03-04T22:27:12.394Z,61.00
2019-03-04T22:30:16.791Z,60.00
2019-03-04T22:33:21.388Z,61.00
2019-03-04T22:36:25.587Z,60.00
2019-03-04T22:39:18.906Z,60.00
2019-03-04T22:42:23.309Z,61.00
2019-03-04T22:45:27.718Z,62.00
2019-03-04T22:48:32.114Z,61.00
2019-03-04T22:51:36.527Z,61.00
2019-03-04T22:54:40.910Z,60.00
2019-03-04T22:57:45.310Z,64.00
2019-03-04T23:00:49.725Z,63.00
2019-03-04T23:03:54.093Z,66.00
2019-03-04T23:06:58.500Z,70.00
2019-03-04T23:09:54.364Z,64.00
2019-03-04T23:12:56.235Z,69.00
2019-03-04T23:16:00.643Z,65.00
2019-03-04T23:19:05.038Z,68.00
2019-03-04T23:22:09.441Z,63.00
2019-03-04T23:25:13.828Z,65.00
2019-03-04T23:28:18.234Z,66.00
2019-03-04T23:31:22.639Z,66.00
2019-03-04T23:34:27.031Z,70.00
2019-03-04T23:37:31.441Z,91.00
2019-03-04T23:40:35.830Z,68.00
2019-03-04T23:43:40.235Z,63.00
2019-03-04T23:46:44.642Z,76.00
2019-03-04T23:49:37.955Z,66.00
2019-03-04T23:52:42.380Z,64.00
2019-03-04T23:55:46.747Z,66.00
2019-03-04T23:58:51.158Z,65.00
